Time;durP1;ratioP1;P1;durP2;ratioP2;P2;SDS_P1;SDS_P2;PMS_P1;PMS_P2;Temp;Humidity;BMP_temperature;BMP_pressure;BME280_temperature;BME280_humidity;BME280_pressure;Samples;Min_cycle;Max_cycle;Signal;HPM_P1;HPM_P2
2023/07/08 00:00:12;;;;;;;10.45;9.68;;;;;;;-144.30;59.54;84120.41;5039544;28;20204;-47
2023/07/08 00:02:40;;;;;;;10.75;9.90;;;;;;;-144.30;59.48;84102.53;5038678;28;20224;-48
2023/07/08 00:05:09;;;;;;;11.00;10.20;;;;;;;-144.30;59.20;84044.91;5039026;28;20224;-48
2023/07/08 00:07:38;;;;;;;10.35;9.60;;;;;;;-144.30;58.68;84086.63;5038874;28;20197;-49
2023/07/08 00:10:16;;;;;;;11.38;10.27;;;;;;;-144.30;58.44;84044.91;5038812;28;20197;-49
2023/07/08 00:12:44;;;;;;;11.13;9.82;;;;;;;-144.30;58.45;84096.56;5038414;28;20196;-47
2023/07/08 00:15:12;;;;;;;14.38;12.18;;;;;;;-144.30;58.25;84088.63;5039697;28;20690;-49
2023/07/08 00:17:39;;;;;;;18.00;16.20;;;;;;;-144.30;58.06;84021.06;5040213;28;21281;-49
2023/07/08 00:20:13;;;;;;;11.13;10.00;;;;;;;-144.30;57.76;84078.69;5038729;28;20231;-47
2023/07/08 00:22:42;;;;;;;11.60;10.70;;;;;;;-144.30;57.38;84056.81;5038084;28;20322;-48
2023/07/08 00:25:09;;;;;;;11.02;10.13;;;;;;;-144.30;57.14;84064.78;5039795;28;20219;-48
2023/07/08 00:27:37;;;;;;;10.60;9.80;;;;;;;-144.30;56.64;84042.91;5039827;28;20201;-47
2023/07/08 00:30:18;;;;;;;11.77;10.68;;;;;;;-144.30;56.65;84048.88;5038049;28;20597;-48
2023/07/08 00:32:45;;;;;;;10.90;10.00;;;;;;;-144.30;56.68;84021.06;5038269;28;20186;-48
2023/07/08 00:35:12;;;;;;;10.80;9.73;;;;;;;-144.30;56.73;84094.56;5039419;28;20215;-49
2023/07/08 00:37:39;;;;;;;11.05;10.05;;;;;;;-144.30;56.60;84038.94;5040001;28;20201;-47
2023/07/08 00:40:17;;;;;;;11.48;9.98;;;;;;;-144.30;56.68;84027.00;5038507;28;20243;-49
2023/07/08 00:42:45;;;;;;;9.93;9.07;;;;;;;-144.30;56.72;84048.88;5038140;28;20226;-47
2023/07/08 00:45:23;;;;;;;11.27;10.38;;;;;;;-144.30;56.68;84096.56;5039245;28;20655;-49
2023/07/08 00:47:52;;;;;;;10.90;10.00;;;;;;;-144.30;56.96;84072.72;5038756;28;20720;-49
2023/07/08 00:50:19;;;;;;;10.50;9.48;;;;;;;-144.30;56.69;84034.97;5038030;28;20196;-49
2023/07/08 00:52:46;;;;;;;10.82;9.82;;;;;;;-144.30;56.82;84040.91;5038205;28;20198;-49
2023/07/08 00:55:15;;;;;;;12.32;10.05;;;;;;;-144.30;57.29;84082.66;5038718;28;20196;-49
2023/07/08 00:57:46;;;;;;;10.23;9.20;;;;;;;-144.30;57.02;84078.69;5039620;28;20726;-49
2023/07/08 01:00:17;;;;;;;10.07;9.18;;;;;;;-144.30;56.98;84108.50;5039042;28;20233;-48
2023/07/08 01:02:49;;;;;;;9.73;9.00;;;;;;;-144.30;57.13;84090.59;5037242;28;20292;-48
2023/07/08 01:05:18;;;;;;;9.60;8.65;;;;;;;-144.30;57.19;84126.38;5037426;28;20207;-47
2023/07/08 01:07:50;;;;;;;9.48;8.57;;;;;;;-144.30;57.18;84076.69;5037673;28;20600;-48
2023/07/08 01:10:23;;;;;;;9.07;8.27;;;;;;;-144.30;57.14;84068.75;5038229;28;20588;-48
2023/07/08 01:12:55;;;;;;;9.95;8.98;;;;;;;-144.30;57.21;84144.25;5038441;28;20703;-49
2023/07/08 01:15:24;;;;;;;8.82;8.10;;;;;;;-144.30;57.81;84112.47;5037743;28;20677;-48
2023/07/08 01:17:53;;;;;;;9.38;8.52;;;;;;;-144.30;58.08;84142.28;5038485;28;20212;-49
2023/07/08 01:20:20;;;;;;;9.48;8.68;;;;;;;-144.30;58.29;84174.06;5039830;28;20247;-49
2023/07/08 01:22:49;;;;;;;8.27;7.68;;;;;;;-144.30;58.47;84191.94;5037529;28;20193;-48
2023/07/08 01:25:16;;;;;;;26.10;9.38;;;;;;;-144.30;58.39;84184.00;5038032;28;20203;-47
2023/07/08 01:27:47;;;;;;;10.48;8.05;;;;;;;-144.30;58.56;84195.94;5039101;28;20196;-50
2023/07/08 01:30:16;;;;;;;9.57;8.60;;;;;;;-144.30;58.87;84219.78;5039572;28;20192;-48
2023/07/08 01:32:49;;;;;;;9.27;8.50;;;;;;;-144.30;58.88;84164.13;5039919;28;20706;-49
2023/07/08 01:35:16;;;;;;;10.38;9.18;;;;;;;-144.30;58.86;84247.59;5037846;28;20289;-48
2023/07/08 01:37:54;;;;;;;10.60;8.65;;;;;;;-144.30;59.12;84247.59;5039270;28;20679;-47
2023/07/08 01:40:29;;;;;;;12.70;8.52;;;;;;;-144.30;59.18;84211.81;5039597;28;20203;-48
2023/07/08 01:42:56;;;;;;;9.48;8.35;;;;;;;-144.30;58.97;84197.91;5038501;28;20595;-49
2023/07/08 01:45:26;;;;;;;10.48;9.50;;;;;;;-144.30;59.00;83885.94;5037675;28;20682;-49
2023/07/08 01:47:57;;;;;;;10.10;9.43;;;;;;;-144.30;58.88;84203.88;5038301;28;20193;-48
2023/07/08 01:50:25;;;;;;;13.32;9.88;;;;;;;-144.30;58.71;84201.88;5039763;28;20238;-48
2023/07/08 01:52:54;;;;;;;10.20;9.30;;;;;;;-144.30;59.03;84221.75;5028069;28;20284;-49
2023/07/08 01:55:28;;;;;;;11.10;10.10;;;;;;;-144.30;59.00;84235.66;5027456;28;20212;-48
2023/07/08 01:57:55;;;;;;;10.60;9.25;;;;;;;-144.30;59.16;84199.91;5027695;28;20267;-48
2023/07/08 02:00:23;;;;;;;10.60;9.65;;;;;;;-144.30;59.05;84217.78;5028980;28;20588;-49
2023/07/08 02:02:52;;;;;;;10.75;9.70;;;;;;;-144.30;59.13;84255.53;5028469;28;20285;-49
2023/07/08 02:05:18;;;;;;;10.98;9.98;;;;;;;-144.30;59.13;84223.75;5028675;28;20197;-49
2023/07/08 02:07:45;;;;;;;10.57;9.63;;;;;;;-144.30;58.92;84225.75;5028560;28;20603;-49
2023/07/08 02:10:11;;;;;;;10.63;9.73;;;;;;;-144.30;58.70;84239.66;5028467;28;20209;-47
2023/07/08 02:12:40;;;;;;;11.30;9.93;;;;;;;-144.30;58.57;84245.59;5028666;28;20201;-48
2023/07/08 02:15:09;;;;;;;11.38;10.27;;;;;;;-144.30;58.47;84247.59;5028748;28;20194;-49
2023/07/08 02:17:36;;;;;;;10.63;9.73;;;;;;;-144.30;58.09;84229.72;5029122;28;20647;-48
2023/07/08 02:20:03;;;;;;;11.10;10.13;;;;;;;-144.30;58.15;84241.63;5032396;28;20229;-49
2023/07/08 02:22:30;;;;;;;12.00;10.50;;;;;;;-144.30;58.46;84229.72;5032174;28;20732;-49
2023/07/08 02:24:57;;;;;;;11.25;10.40;;;;;;;-144.30;58.50;84241.63;5032485;28;20712;-49
2023/07/08 02:27:27;;;;;;;11.45;10.45;;;;;;;-144.30;58.67;84259.50;5032444;28;20193;-49
2023/07/08 02:29:55;;;;;;;11.55;10.55;;;;;;;-144.30;58.94;84255.53;5031918;28;20285;-48
2023/07/08 02:32:22;;;;;;;12.52;11.32;;;;;;;-144.30;58.95;84269.47;5032090;28;20292;-50
2023/07/08 02:34:51;;;;;;;13.20;11.35;;;;;;;-144.30;58.82;84275.41;5031798;28;20190;-48
2023/07/08 02:37:18;;;;;;;14.05;12.00;;;;;;;-144.30;58.94;84247.59;5031785;28;20292;-50
2023/07/08 02:39:45;;;;;;;13.35;12.07;;;;;;;-144.30;59.06;84243.63;5034426;28;20684;-48
2023/07/08 02:42:12;;;;;;;13.27;11.75;;;;;;;-144.30;59.01;84255.53;5040815;28;20209;-50
2023/07/08 02:44:39;;;;;;;13.60;12.30;;;;;;;-144.30;58.97;84267.47;5040275;28;20308;-48
2023/07/08 02:47:07;;;;;;;16.00;12.82;;;;;;;-144.30;59.23;84303.25;5041110;28;20189;-49
2023/07/08 02:49:35;;;;;;;13.57;12.57;;;;;;;-144.30;59.15;84261.50;5041817;28;20193;-48
2023/07/08 02:52:02;;;;;;;14.18;13.07;;;;;;;-144.30;59.16;84283.38;5039804;28;20323;-50
2023/07/08 02:54:29;;;;;;;14.88;13.43;;;;;;;-144.30;59.01;84277.41;5041827;28;20200;-50
2023/07/08 02:56:56;;;;;;;15.32;13.93;;;;;;;-144.30;59.08;84311.19;5040123;28;20585;-48
2023/07/08 02:59:23;;;;;;;16.38;14.65;;;;;;;-144.30;59.41;84289.31;5041442;28;20200;-50
2023/07/08 03:01:50;;;;;;;16.10;14.52;;;;;;;-144.30;59.37;84303.25;5041588;28;20198;-50
2023/07/08 03:04:21;;;;;;;14.82;13.68;;;;;;;-144.30;59.21;84317.16;5039713;28;20235;-50
2023/07/08 03:06:51;;;;;;;15.45;14.05;;;;;;;-144.30;59.42;84285.34;5040287;28;20316;-49
2023/07/08 03:09:18;;;;;;;18.00;14.85;;;;;;;-144.30;59.37;84285.34;5039991;28;20290;-50
2023/07/08 03:11:45;;;;;;;16.20;14.57;;;;;;;-144.30;59.03;84255.53;5040704;28;20201;-50
2023/07/08 03:14:12;;;;;;;17.10;15.30;;;;;;;-144.30;59.15;84279.38;5039169;28;20189;-47
2023/07/08 03:16:39;;;;;;;18.25;16.38;;;;;;;-144.30;58.77;84263.50;5039640;28;20200;-49
2023/07/08 03:19:07;;;;;;;17.10;15.38;;;;;;;-144.30;58.81;84331.06;5040734;28;20734;-48
2023/07/08 03:21:35;;;;;;;17.77;16.08;;;;;;;-144.30;58.69;84303.25;5041625;28;20679;-49
2023/07/08 03:24:02;;;;;;;17.95;16.15;;;;;;;-144.30;58.77;84299.25;5037600;28;20705;-49
2023/07/08 03:26:29;;;;;;;21.77;17.02;;;;;;;-144.30;58.54;84311.19;5040668;28;20204;-49
2023/07/08 03:28:56;;;;;;;18.42;15.95;;;;;;;-144.30;58.74;84342.97;5039561;28;20280;-48
2023/07/08 03:31:23;;;;;;;18.20;16.50;;;;;;;-144.30;58.91;84323.13;5041454;28;20188;-49
2023/07/08 03:33:49;;;;;;;17.90;16.40;;;;;;;-144.30;58.97;84307.22;5038245;28;20280;-48
2023/07/08 03:36:23;;;;;;;20.25;16.83;;;;;;;-144.30;58.96;84313.19;5031215;28;20711;-49
2023/07/08 03:38:53;;;;;;;18.58;16.65;;;;;;;-144.30;58.83;84303.25;5030933;28;20193;-48
2023/07/08 03:41:20;;;;;;;18.48;16.27;;;;;;;-144.30;58.59;84239.66;5032781;28;20199;-49
2023/07/08 03:43:47;;;;;;;17.13;15.68;;;;;;;-144.30;58.69;84307.22;5030682;28;20227;-50
2023/07/08 03:46:15;;;;;;;18.38;16.65;;;;;;;-144.30;58.77;84305.22;5041550;28;20205;-50
2023/07/08 03:48:42;;;;;;;17.73;16.17;;;;;;;-144.30;58.79;84279.38;5037785;28;20205;-47
2023/07/08 03:51:14;;;;;;;20.02;17.33;;;;;;;-144.30;59.03;84285.34;5048471;28;20293;-48
2023/07/08 03:53:40;;;;;;;20.42;17.33;;;;;;;-144.30;58.85;84360.88;5035675;28;20662;-49
2023/07/08 03:56:13;;;;;;;18.05;16.23;;;;;;;-144.30;58.93;84341.00;5035858;28;20607;-50
2023/07/08 03:58:40;;;;;;;18.23;16.55;;;;;;;-144.30;59.01;84287.34;5050645;28;20677;-49
2023/07/08 04:01:14;;;;;;;20.42;16.67;;;;;;;-144.30;59.00;84341.00;5050384;28;20654;-50
2023/07/08 04:03:41;;;;;;;17.73;15.93;;;;;;;-144.30;58.88;84265.47;5050258;28;20610;-48
2023/07/08 04:06:08;;;;;;;18.42;16.63;;;;;;;-144.30;58.74;84293.31;5050342;28;20200;-49
2023/07/08 04:08:35;;;;;;;17.90;16.17;;;;;;;-144.30;59.03;84267.47;5050107;28;20224;-49
2023/07/08 04:11:02;;;;;;;18.60;16.63;;;;;;;-144.30;58.91;84271.44;5040633;28;20207;-48
2023/07/08 04:13:30;;;;;;;17.70;16.23;;;;;;;-144.30;58.74;84297.28;5039598;28;20192;-47
2023/07/08 04:16:01;;;;;;;18.40;16.65;;;;;;;-144.30;58.35;84259.50;5040608;28;20185;-49
2023/07/08 04:18:28;;;;;;;18.42;16.75;;;;;;;-144.30;58.40;84247.59;5040132;28;20247;-51
2023/07/08 04:20:55;;;;;;;18.42;16.85;;;;;;;-144.30;57.99;84245.59;5038378;28;20587;-49
2023/07/08 04:23:23;;;;;;;18.05;16.35;;;;;;;-144.30;57.54;84849.78;5039976;28;20314;-48
2023/07/08 04:25:51;;;;;;;18.05;16.10;;;;;;;-144.30;56.14;84130.34;5039020;28;20220;-50
2023/07/08 04:28:18;;;;;;;17.35;15.95;;;;;;;-144.30;53.47;83995.22;5038323;28;20185;-50
2023/07/08 04:30:49;;;;;;;17.70;15.98;;;;;;;-144.30;50.17;83734.91;5037945;28;20233;-48
2023/07/08 04:33:16;;;;;;;16.23;14.82;;;;;;;-144.30;46.21;83460.72;5034401;28;20673;-50
2023/07/08 04:35:44;;;;;;;16.73;14.98;;;;;;;-144.30;43.09;83230.25;5038844;28;20194;-49
2023/07/08 04:38:17;;;;;;;16.52;15.02;;;;;;;-144.30;39.60;82892.53;5038406;28;20192;-50
2023/07/08 04:40:45;;;;;;;15.95;14.45;;;;;;;-144.30;38.28;82751.50;5038061;28;20678;-49
2023/07/08 04:43:12;;;;;;;15.07;13.80;;;;;;;-144.30;36.89;82550.88;5038459;28;20596;-50
2023/07/08 04:45:39;;;;;;;15.35;13.52;;;;;;;-144.30;35.45;82360.19;5037706;28;20219;-50
2023/07/08 04:48:13;;;;;;;14.27;13.02;;;;;;;-144.30;35.34;82338.34;5044451;28;20197;-48
2023/07/08 04:50:41;;;;;;;13.93;12.93;;;;;;;-144.30;34.67;82324.44;5033971;28;20448;-49
2023/07/08 04:53:08;;;;;;;13.43;12.52;;;;;;;-144.30;34.18;82179.47;5037524;28;20200;-50
2023/07/08 04:55:35;;;;;;;13.65;12.60;;;;;;;-144.30;33.31;81961.00;5039119;28;20220;-50
2023/07/08 04:58:03;;;;;;;13.38;12.40;;;;;;;-144.30;32.97;82014.63;5039221;28;20665;-49
2023/07/08 05:00:30;;;;;;;13.05;11.93;;;;;;;-144.30;33.24;81982.84;5037203;28;20193;-50
2023/07/08 05:02:57;;;;;;;13.65;12.32;;;;;;;-144.30;33.37;82080.16;5028924;28;20203;-49
2023/07/08 05:05:25;;;;;;;13.77;12.52;;;;;;;-144.30;32.66;81927.22;5029225;28;20633;-50
2023/07/08 05:07:53;;;;;;;12.27;11.20;;;;;;;-144.30;32.38;81855.75;5046109;28;20200;-50
2023/07/08 05:10:20;;;;;;;12.95;11.57;;;;;;;-144.30;31.97;81756.44;5048868;28;20204;-50
2023/07/08 05:12:47;;;;;;;12.32;11.23;;;;;;;-144.30;31.66;81746.53;5048621;28;20200;-50
2023/07/08 05:15:15;;;;;;;13.05;11.80;;;;;;;-144.30;31.15;81538.00;5048728;28;20242;-53
2023/07/08 05:17:42;;;;;;;12.18;11.35;;;;;;;-144.30;30.75;81414.91;5043263;28;20226;-50
2023/07/08 05:20:12;;;;;;;12.30;11.18;;;;;;;-144.30;30.98;81434.75;5044787;28;20221;-49
2023/07/08 05:22:42;;;;;;;12.70;11.40;;;;;;;-144.30;30.48;81383.13;5035834;28;20679;-49
2023/07/08 05:25:10;;;;;;;12.10;10.88;;;;;;;-144.30;30.03;81369.22;5043150;28;20216;-50
2023/07/08 05:27:36;;;;;;;12.40;11.27;;;;;;;-144.30;29.77;81226.28;5036946;28;20197;-50
2023/07/08 05:30:05;;;;;;;11.68;10.70;;;;;;;-144.30;29.75;81166.69;5048315;28;20210;-49
2023/07/08 05:32:32;;;;;;;11.20;10.23;;;;;;;-144.30;29.67;81220.31;5029217;28;20207;-50
2023/07/08 05:34:59;;;;;;;16.50;10.38;;;;;;;-144.30;29.51;81256.06;5031813;28;20203;-52
2023/07/08 05:37:28;;;;;;;11.88;10.55;;;;;;;-144.30;29.95;81260.03;5028835;28;20197;-50
2023/07/08 05:39:57;;;;;;;10.98;10.07;;;;;;;-144.30;29.59;81295.75;5034528;28;20193;-50
2023/07/08 05:42:24;;;;;;;11.27;10.32;;;;;;;-144.30;30.15;81399.00;5037200;28;20200;-50
2023/07/08 05:44:52;;;;;;;11.30;10.40;;;;;;;-144.30;30.07;81474.47;5039017;28;20248;-48
2023/07/08 05:47:19;;;;;;;11.57;10.68;;;;;;;-144.30;30.09;81424.81;5031344;28;20201;-50
2023/07/08 05:49:46;;;;;;;11.30;10.55;;;;;;;-144.30;29.60;81248.13;5028777;28;20188;-50
2023/07/08 05:52:13;;;;;;;11.50;10.55;;;;;;;-144.30;29.25;81196.50;5030481;28;20201;-48
2023/07/08 05:54:41;;;;;;;11.32;10.60;;;;;;;-144.30;29.56;81180.59;5032300;28;20713;-49
2023/07/08 05:57:11;;;;;;;13.13;11.63;;;;;;;-144.30;29.46;81220.31;5031988;28;20207;-51
2023/07/08 05:59:39;;;;;;;11.30;10.43;;;;;;;-144.30;30.08;81444.69;5032396;28;20197;-50
2023/07/08 06:02:07;;;;;;;12.23;11.30;;;;;;;-144.30;29.92;81331.50;5032505;28;20208;-50
2023/07/08 06:04:34;;;;;;;11.55;10.65;;;;;;;-144.30;30.03;81389.09;5032389;28;20226;-49
2023/07/08 06:07:01;;;;;;;11.48;10.40;;;;;;;-144.30;29.81;81321.56;5032755;28;20688;-50
2023/07/08 06:09:28;;;;;;;13.07;11.50;;;;;;;-144.30;29.79;81436.75;5032464;28;20582;-49
2023/07/08 06:11:55;;;;;;;11.82;10.70;;;;;;;-144.30;30.12;81448.66;5032113;28;20595;-48
2023/07/08 06:14:23;;;;;;;11.57;10.50;;;;;;;-144.30;29.99;81541.97;5032312;28;20254;-48
2023/07/08 06:16:50;;;;;;;13.95;12.80;;;;;;;-144.30;30.46;81561.84;5032176;28;20197;-49
2023/07/08 06:19:17;;;;;;;12.57;11.52;;;;;;;-144.30;29.60;81397.03;5039038;28;20240;-54
2023/07/08 06:21:44;;;;;;;11.57;10.70;;;;;;;-144.30;30.21;81480.44;5052157;28;20196;-51
2023/07/08 06:24:11;;;;;;;11.80;10.68;;;;;;;-144.30;29.55;81357.31;5052185;28;20199;-51
2023/07/08 06:26:38;;;;;;;12.20;9.63;;;;;;;-144.30;29.68;81383.13;5051907;28;20216;-51
2023/07/08 06:29:05;;;;;;;10.55;9.63;;;;;;;-144.30;30.22;81538.00;5046408;28;20689;-53
2023/07/08 06:31:34;;;;;;;12.20;10.27;;;;;;;-144.30;30.27;81551.91;5043108;28;20652;-49
2023/07/08 06:34:01;;;;;;;11.05;9.98;;;;;;;-144.30;30.19;81506.25;5041469;28;20201;-51
2023/07/08 06:36:28;;;;;;;12.07;10.50;;;;;;;-144.30;29.96;81416.88;5042754;28;20196;-51
2023/07/08 06:38:55;;;;;;;14.15;10.05;;;;;;;-144.30;29.77;81381.16;5043768;28;20198;-50
2023/07/08 06:41:22;;;;;;;10.00;8.13;;;;;;;-144.30;29.94;81464.53;5042420;28;20209;-51
2023/07/08 06:43:49;;;;;;;12.18;8.05;;;;;;;-144.30;30.11;81492.34;5045072;28;20211;-52
2023/07/08 06:46:16;;;;;;;15.45;9.02;;;;;;;-144.30;29.96;81488.38;5039820;28;20223;-50
2023/07/08 06:48:45;;;;;;;12.23;11.10;;;;;;;-144.30;30.14;81524.13;5035450;28;20193;-50
2023/07/08 06:51:12;;;;;;;11.68;8.05;;;;;;;-144.30;30.45;81766.38;5051018;28;20716;-52
2023/07/08 06:53:39;;;;;;;12.07;8.23;;;;;;;-144.30;31.58;81992.78;5050891;28;20204;-50
2023/07/08 06:56:06;;;;;;;7.95;7.35;;;;;;;-144.30;31.64;81883.53;5051246;28;20201;-53
2023/07/08 06:58:33;;;;;;;7.88;7.18;;;;;;;-144.30;31.55;81962.97;5051571;28;20311;-51
2023/07/08 07:00:59;;;;;;;7.55;6.78;;;;;;;-144.30;31.69;82020.56;5043846;28;20572;-51
2023/07/08 07:03:26;;;;;;;13.77;7.38;;;;;;;-144.30;31.35;81935.19;5030924;28;20198;-51
2023/07/08 07:05:55;;;;;;;12.55;7.57;;;;;;;-144.30;31.15;81814.03;5034309;28;20672;-51
2023/07/08 07:08:22;;;;;;;7.13;6.13;;;;;;;-144.30;30.98;81937.16;5043859;28;20189;-54
2023/07/08 07:10:49;;;;;;;10.13;7.20;;;;;;;-144.30;30.91;81863.69;5031493;28;20219;-52
2023/07/08 07:13:15;;;;;;;11.52;6.65;;;;;;;-144.30;30.79;81820.00;5031912;28;20701;-50
2023/07/08 07:15:42;;;;;;;7.30;6.78;;;;;;;-144.30;30.50;81752.47;5031025;28;20204;-50
2023/07/08 07:18:09;;;;;;;10.95;5.97;;;;;;;-144.30;30.25;81671.06;5031792;28;20197;-53
2023/07/08 07:20:38;;;;;;;10.77;8.93;;;;;;;-144.30;30.23;81659.16;5030954;28;20239;-49
2023/07/08 07:23:06;;;;;;;9.57;6.22;;;;;;;-144.30;30.24;81688.94;5031791;28;20699;-52
2023/07/08 07:25:33;;;;;;;6.78;6.25;;;;;;;-144.30;30.72;81895.47;5031239;28;20227;-50
2023/07/08 07:28:00;;;;;;;7.00;6.35;;;;;;;-144.30;31.48;82044.41;5031029;28;20201;-50
2023/07/08 07:30:27;;;;;;;9.20;6.80;;;;;;;-144.30;32.90;82239.03;5031073;28;20292;-50
2023/07/08 07:32:54;;;;;;;20.73;10.02;;;;;;;-144.30;33.50;82469.44;5030555;28;20236;-52
2023/07/08 07:35:22;;;;;;;47.78;16.85;;;;;;;-144.30;34.00;82525.06;5030928;28;20189;-51
2023/07/08 07:37:49;;;;;;;18.73;8.90;;;;;;;-144.30;34.50;82610.47;5030745;28;20199;-48
2023/07/08 07:40:18;;;;;;;18.73;8.65;;;;;;;-144.30;34.59;82533.00;5030980;28;20298;-53
2023/07/08 07:42:46;;;;;;;8.90;8.13;;;;;;;-144.30;35.25;82640.25;5040406;28;20208;-50
2023/07/08 07:45:14;;;;;;;12.93;7.70;;;;;;;-144.30;35.37;82737.59;5050806;28;20716;-53
2023/07/08 07:47:42;;;;;;;9.75;8.82;;;;;;;-144.30;35.10;82572.72;5036182;28;20197;-49
2023/07/08 07:50:10;;;;;;;7.85;6.90;;;;;;;-144.30;34.11;82495.25;5031141;28;20769;-48
2023/07/08 07:52:37;;;;;;;7.95;7.05;;;;;;;-144.30;33.74;82431.69;5030444;28;20592;-51
2023/07/08 07:55:05;;;;;;;7.28;6.63;;;;;;;-144.30;33.88;82469.44;5028987;28;20227;-52
2023/07/08 07:57:33;;;;;;;6.78;6.32;;;;;;;-144.30;33.88;82423.75;5029218;28;20207;-51
2023/07/08 08:00:00;;;;;;;8.30;7.30;;;;;;;-144.30;33.04;82280.75;5030142;28;20199;-49
2023/07/08 08:02:27;;;;;;;12.45;6.88;;;;;;;-144.30;32.47;82250.97;5030387;28;20201;-50
2023/07/08 08:04:53;;;;;;;7.35;6.70;;;;;;;-144.30;32.62;82183.44;5030007;28;20284;-49
2023/07/08 08:07:21;;;;;;;9.93;6.18;;;;;;;-144.30;31.84;82084.13;5030428;28;20202;-50
2023/07/08 08:09:48;;;;;;;13.07;7.13;;;;;;;-144.30;31.45;81998.72;5030252;28;20673;-51
2023/07/08 08:12:14;;;;;;;10.98;6.13;;;;;;;-144.30;30.86;81798.16;5030328;28;20669;-50
2023/07/08 08:14:43;;;;;;;6.43;5.80;;;;;;;-144.30;29.97;81609.50;5029568;28;20583;-49
2023/07/08 08:17:10;;;;;;;6.57;5.93;;;;;;;-144.30;29.55;81492.34;5029928;28;20201;-51
2023/07/08 08:19:37;;;;;;;6.75;5.30;;;;;;;-144.30;29.31;81502.28;5044469;28;20234;-50
2023/07/08 08:22:04;;;;;;;8.13;5.90;;;;;;;-144.30;29.10;81331.50;5050268;28;20610;-50
2023/07/08 08:24:31;;;;;;;10.95;5.05;;;;;;;-144.30;28.92;81363.28;5050356;28;20231;-51
2023/07/08 08:26:58;;;;;;;7.22;5.50;;;;;;;-144.30;28.75;81357.31;5049538;28;20699;-50
2023/07/08 08:29:26;;;;;;;8.60;5.50;;;;;;;-144.30;29.12;81470.50;5049670;28;20196;-48
2023/07/08 08:31:55;;;;;;;15.20;5.65;;;;;;;-144.30;29.34;81416.88;5049708;28;20696;-49
2023/07/08 08:34:22;;;;;;;7.82;5.78;;;;;;;-144.30;28.80;81408.94;5049944;28;20223;-49
2023/07/08 08:36:59;;;;;;;5.93;5.47;;;;;;;-144.30;28.54;81224.28;5086129;27;20748;-51
2023/07/08 08:39:29;;;;;;;5.75;4.85;;;;;;;-144.30;28.46;81218.31;5086540;28;20194;-50
2023/07/08 08:41:56;;;;;;;17.83;5.95;;;;;;;-144.30;27.88;81204.44;5086193;28;20600;-52
2023/07/08 08:44:29;;;;;;;12.35;5.28;;;;;;;-144.30;28.66;81357.31;5086938;28;20666;-51
2023/07/08 08:47:02;;;;;;;10.75;5.10;;;;;;;-144.30;28.68;81536.03;5086206;28;20217;-52
2023/07/08 08:49:36;;;;;;;6.50;4.60;;;;;;;-144.30;29.00;81619.44;5086405;28;20276;-50
2023/07/08 08:52:06;;;;;;;7.43;4.78;;;;;;;-144.30;29.27;81637.31;5086092;28;20190;-51
2023/07/08 08:54:32;;;;;;;9.55;5.15;;;;;;;-144.30;29.37;81679.00;5086009;28;20721;-52
2023/07/08 08:57:08;;;;;;;4.88;4.47;;;;;;;-144.30;29.50;81891.50;5085994;28;20218;-51
2023/07/08 08:59:43;;;;;;;23.20;5.53;;;;;;;-144.30;30.73;82121.88;5082079;28;20237;-52
2023/07/08 09:02:28;;;;;;;9.60;5.00;;;;;;;-144.30;31.27;82181.44;5086088;28;20599;-51
2023/07/08 09:04:59;;;;;;;9.07;5.03;;;;;;;-144.30;31.27;82227.13;5085624;28;20198;-51
2023/07/08 09:07:29;;;;;;;7.63;5.80;;;;;;;-144.30;31.52;82290.69;5086011;28;20610;-52
2023/07/08 09:10:05;;;;;;;8.30;5.88;;;;;;;-144.30;32.00;82393.97;5085741;28;20217;-51
2023/07/08 09:12:34;;;;;;;5.50;5.07;;;;;;;-144.30;32.05;82431.69;5083068;28;20227;-50
2023/07/08 09:15:12;;;;;;;6.03;4.68;;;;;;;-144.30;32.35;82455.53;5079775;28;20237;-52
2023/07/08 09:17:39;;;;;;;5.32;4.78;;;;;;;-144.30;32.16;82338.34;5074005;28;20215;-50
2023/07/08 09:20:18;;;;;;;9.48;4.85;;;;;;;-144.30;31.92;82233.09;5085296;28;20213;-49
2023/07/08 09:22:51;;;;;;;8.82;4.40;;;;;;;-144.30;32.21;82399.91;5084432;28;20199;-50
2023/07/08 09:25:25;;;;;;;6.75;4.20;;;;;;;-144.30;32.50;82439.66;5083756;28;20200;-51
2023/07/08 09:27:58;;;;;;;6.72;4.78;;;;;;;-144.30;32.45;82503.22;5077897;28;20210;-52
2023/07/08 09:30:28;;;;;;;9.85;5.03;;;;;;;-144.30;32.54;82505.19;5073334;28;20620;-52
2023/07/08 09:32:56;;;;;;;6.28;4.97;;;;;;;-144.30;32.58;82443.63;5083877;28;20199;-49
2023/07/08 09:35:25;;;;;;;5.10;4.68;;;;;;;-144.30;32.23;82312.53;5084377;28;20235;-50
2023/07/08 09:37:54;;;;;;;7.70;4.95;;;;;;;-144.30;31.90;82175.50;5084143;28;20261;-51
2023/07/08 09:40:23;;;;;;;5.20;4.70;;;;;;;-144.30;30.96;82165.56;5085000;28;20191;-49
2023/07/08 09:42:52;;;;;;;6.25;4.38;;;;;;;-144.30;30.78;82030.50;5084901;28;20196;-51
2023/07/08 09:45:22;;;;;;;12.20;4.95;;;;;;;-144.30;30.58;82020.56;5084680;28;20191;-51
2023/07/08 09:47:53;;;;;;;5.20;4.45;;;;;;;-144.30;30.64;82040.44;5073681;28;20204;-51
2023/07/08 09:50:23;;;;;;;6.80;4.93;;;;;;;-144.30;30.40;81907.38;5071442;28;20196;-51
2023/07/08 09:52:51;;;;;;;4.68;4.38;;;;;;;-144.30;30.26;81760.41;5071081;28;20192;-51
2023/07/08 09:55:19;;;;;;;6.82;3.80;;;;;;;-144.30;30.18;81895.47;5071543;28;20741;-50
2023/07/08 09:57:49;;;;;;;4.68;4.47;;;;;;;-144.30;30.21;81947.09;5071547;28;20196;-50
2023/07/08 10:00:17;;;;;;;5.07;4.10;;;;;;;-144.30;30.17;81966.94;5071026;28;20200;-49
2023/07/08 10:02:47;;;;;;;6.82;4.72;;;;;;;-144.30;30.24;81939.16;5071258;28;20200;-49
2023/07/08 10:05:19;;;;;;;4.55;4.18;;;;;;;-144.30;29.94;81859.72;5070909;28;20188;-50
2023/07/08 10:07:47;;;;;;;4.05;3.75;;;;;;;-144.30;29.94;81875.59;5051053;28;20211;-49
2023/07/08 10:10:18;;;;;;;9.45;4.90;;;;;;;-144.30;30.18;81945.09;5051125;28;20688;-51
2023/07/08 10:12:56;;;;;;;9.55;4.60;;;;;;;-144.30;30.27;82012.63;5050939;28;20666;-50
2023/07/08 10:15:28;;;;;;;6.93;5.00;;;;;;;-144.30;29.95;81996.75;5051261;28;20722;-50
2023/07/08 10:17:56;;;;;;;4.85;4.43;;;;;;;-144.30;30.25;82074.19;5065454;28;20639;-51
2023/07/08 10:20:24;;;;;;;5.60;5.10;;;;;;;-144.30;30.16;82032.50;5070624;28;20649;-51
2023/07/08 10:23:05;;;;;;;7.95;5.53;;;;;;;-144.30;30.25;82034.47;5070465;28;20214;-49
2023/07/08 10:25:44;;;;;;;5.45;4.88;;;;;;;-144.30;30.25;82060.28;5068790;28;20216;-49
2023/07/08 10:28:28;;;;;;;7.65;5.25;;;;;;;-144.30;30.63;82105.97;5068669;28;20655;-50
2023/07/08 10:31:06;;;;;;;8.50;4.68;;;;;;;-144.30;30.30;82137.75;5068890;28;20188;-50
2023/07/08 10:33:46;;;;;;;5.70;4.50;;;;;;;-144.30;30.80;82183.44;5067134;28;20276;-49
2023/07/08 10:36:23;;;;;;;8.15;4.38;;;;;;;-144.30;30.79;82131.78;5061732;28;20490;-51
2023/07/08 10:39:18;;;;;;;4.45;4.25;;;;;;;-144.30;30.77;82217.19;5068506;28;20668;-51
2023/07/08 10:41:54;;;;;;;4.07;3.72;;;;;;;-144.30;30.72;82237.06;5067872;28;20218;-49
2023/07/08 10:44:27;;;;;;;4.57;4.38;;;;;;;-144.30;30.97;82241.03;5069775;28;20202;-51
2023/07/08 10:47:07;;;;;;;5.72;4.70;;;;;;;-144.30;31.13;82245.00;5064623;28;20188;-51
2023/07/08 10:49:49;;;;;;;4.18;3.95;;;;;;;-144.30;31.02;82298.63;5070187;28;20215;-50
2023/07/08 10:52:32;;;;;;;4.88;4.35;;;;;;;-144.30;31.30;82336.38;5069896;28;20294;-49
2023/07/08 10:55:14;;;;;;;4.45;4.25;;;;;;;-144.30;31.27;82308.56;5070225;28;20218;-49
2023/07/08 10:58:02;;;;;;;4.82;4.53;;;;;;;-144.30;31.91;82378.06;5066990;28;20676;-52
2023/07/08 11:00:39;;;;;;;4.55;4.25;;;;;;;-144.30;31.62;82328.41;5069705;28;20271;-51
2023/07/08 11:03:33;;;;;;;4.32;3.92;;;;;;;-144.30;31.22;82344.31;5070152;28;20583;-51
2023/07/08 11:06:08;;;;;;;5.18;3.90;;;;;;;-144.30;31.15;82348.28;5069739;28;20204;-51
2023/07/08 11:08:43;;;;;;;4.18;3.83;;;;;;;-144.30;31.30;82411.84;5070042;28;20729;-50
2023/07/08 11:11:23;;;;;;;3.78;3.58;;;;;;;-144.30;31.24;82463.47;5070059;28;20203;-50
2023/07/08 11:13:54;;;;;;;4.18;3.78;;;;;;;-144.30;31.13;82393.97;5069701;28;20196;-49
2023/07/08 11:16:27;;;;;;;4.38;4.03;;;;;;;-144.30;30.90;82429.72;5069957;28;20227;-48
2023/07/08 11:19:02;;;;;;;4.15;3.85;;;;;;;-144.30;31.13;82411.84;5069511;28;20199;-50